Terminal Aerodrome Forecast
Issued by NWS Cleveland, OH

Home | Current Version | Previous Version | Graphics & Text | Print | Product List | Glossary Off
Versions: 1 2 3 4 5 6 7 8 9 10 11 12 13 14 15 16 17 18 19

196
FTUS41 KCLE 301414 AAA
TAFERI
TAF AMD
KERI 301414Z 3014/0112 07010KT 6SM -RA SCT007 OVC035
      TEMPO 3014/3016 4SM -RA BKN007 OVC025
     FM301600 09012G20KT P6SM SCT025 OVC035
     FM010300 09010KT P6SM OVC025=

USA.gov is the U.S. government's official web portal to all federal, state and local government web resources and services.